sensor_id;sensor_type;location;lat;lon;timestamp;P1;durP1;ratioP1;P2;durP2;ratioP2
62977;SDS011;49073;42.352;23.808;2022-08-21T00:00:25;4.22;;;2.60;;
62977;SDS011;49073;42.352;23.808;2022-08-21T00:03:27;8.73;;;3.30;;
62977;SDS011;49073;42.352;23.808;2022-08-21T00:06:27;7.10;;;3.00;;
62977;SDS011;49073;42.352;23.808;2022-08-21T00:09:28;12.30;;;3.22;;
62977;SDS011;49073;42.352;23.808;2022-08-21T00:12:29;4.20;;;2.50;;
62977;SDS011;49073;42.352;23.808;2022-08-21T00:15:31;4.03;;;2.90;;
62977;SDS011;49073;42.352;23.808;2022-08-21T00:18:33;10.55;;;2.72;;
62977;SDS011;49073;42.352;23.808;2022-08-21T00:21:34;4.95;;;3.00;;
62977;SDS011;49073;42.352;23.808;2022-08-21T00:24:35;4.43;;;3.13;;
62977;SDS011;49073;42.352;23.808;2022-08-21T00:27:36;6.07;;;2.80;;
62977;SDS011;49073;42.352;23.808;2022-08-21T00:30:37;9.68;;;3.03;;
62977;SDS011;49073;42.352;23.808;2022-08-21T00:33:38;4.53;;;2.53;;
62977;SDS011;49073;42.352;23.808;2022-08-21T00:36:39;7.15;;;2.85;;
62977;SDS011;49073;42.352;23.808;2022-08-21T00:39:40;4.70;;;2.40;;
62977;SDS011;49073;42.352;23.808;2022-08-21T00:42:40;3.60;;;2.60;;
62977;SDS011;49073;42.352;23.808;2022-08-21T00:45:41;6.07;;;3.88;;
62977;SDS011;49073;42.352;23.808;2022-08-21T00:48:42;11.45;;;3.20;;
62977;SDS011;49073;42.352;23.808;2022-08-21T00:51:49;5.60;;;2.80;;
62977;SDS011;49073;42.352;23.808;2022-08-21T00:54:53;5.28;;;3.03;;
62977;SDS011;49073;42.352;23.808;2022-08-21T00:57:57;5.25;;;2.60;;
62977;SDS011;49073;42.352;23.808;2022-08-21T01:01:00;6.03;;;2.55;;
62977;SDS011;49073;42.352;23.808;2022-08-21T01:04:04;7.72;;;2.70;;
62977;SDS011;49073;42.352;23.808;2022-08-21T01:07:05;3.25;;;2.25;;
62977;SDS011;49073;42.352;23.808;2022-08-21T01:10:07;3.60;;;2.30;;
62977;SDS011;49073;42.352;23.808;2022-08-21T01:13:09;5.40;;;2.63;;
62977;SDS011;49073;42.352;23.808;2022-08-21T01:16:12;9.80;;;2.67;;
62977;SDS011;49073;42.352;23.808;2022-08-21T01:19:15;4.38;;;2.90;;
62977;SDS011;49073;42.352;23.808;2022-08-21T01:22:17;6.40;;;2.72;;
62977;SDS011;49073;42.352;23.808;2022-08-21T01:25:19;5.68;;;2.97;;
62977;SDS011;49073;42.352;23.808;2022-08-21T01:28:19;8.02;;;2.80;;
62977;SDS011;49073;42.352;23.808;2022-08-21T01:31:22;9.80;;;2.83;;
62977;SDS011;49073;42.352;23.808;2022-08-21T01:34:25;6.63;;;3.17;;
62977;SDS011;49073;42.352;23.808;2022-08-21T01:37:25;7.78;;;2.92;;
62977;SDS011;49073;42.352;23.808;2022-08-21T01:40:26;4.70;;;2.70;;
62977;SDS011;49073;42.352;23.808;2022-08-21T01:43:27;4.72;;;2.97;;
62977;SDS011;49073;42.352;23.808;2022-08-21T01:46:27;5.82;;;3.05;;
62977;SDS011;49073;42.352;23.808;2022-08-21T01:49:28;5.28;;;3.17;;
62977;SDS011;49073;42.352;23.808;2022-08-21T01:52:28;5.40;;;2.60;;
62977;SDS011;49073;42.352;23.808;2022-08-21T01:55:29;3.67;;;2.53;;
62977;SDS011;49073;42.352;23.808;2022-08-21T01:58:29;5.53;;;3.08;;
62977;SDS011;49073;42.352;23.808;2022-08-21T02:01:30;11.48;;;3.30;;
62977;SDS011;49073;42.352;23.808;2022-08-21T02:04:31;6.68;;;3.17;;
62977;SDS011;49073;42.352;23.808;2022-08-21T02:07:43;9.60;;;3.03;;
62977;SDS011;49073;42.352;23.808;2022-08-21T02:10:45;8.50;;;2.97;;
62977;SDS011;49073;42.352;23.808;2022-08-21T02:13:46;4.38;;;2.88;;
62977;SDS011;49073;42.352;23.808;2022-08-21T02:16:47;3.83;;;2.50;;
62977;SDS011;49073;42.352;23.808;2022-08-21T02:19:47;7.25;;;2.85;;
62977;SDS011;49073;42.352;23.808;2022-08-21T02:22:48;6.30;;;2.88;;
62977;SDS011;49073;42.352;23.808;2022-08-21T02:25:49;9.50;;;3.25;;
62977;SDS011;49073;42.352;23.808;2022-08-21T02:28:50;4.45;;;2.55;;
62977;SDS011;49073;42.352;23.808;2022-08-21T02:31:50;6.20;;;2.97;;
62977;SDS011;49073;42.352;23.808;2022-08-21T02:34:51;6.38;;;2.63;;
62977;SDS011;49073;42.352;23.808;2022-08-21T02:37:53;14.43;;;3.25;;
62977;SDS011;49073;42.352;23.808;2022-08-21T02:40:56;8.07;;;2.92;;
62977;SDS011;49073;42.352;23.808;2022-08-21T02:43:57;7.38;;;3.08;;
62977;SDS011;49073;42.352;23.808;2022-08-21T02:46:57;6.68;;;3.42;;
62977;SDS011;49073;42.352;23.808;2022-08-21T02:49:58;6.95;;;3.08;;
62977;SDS011;49073;42.352;23.808;2022-08-21T02:52:58;8.88;;;2.90;;
62977;SDS011;49073;42.352;23.808;2022-08-21T02:56:00;3.55;;;2.63;;
62977;SDS011;49073;42.352;23.808;2022-08-21T02:59:04;8.60;;;2.92;;
62977;SDS011;49073;42.352;23.808;2022-08-21T03:02:05;4.72;;;2.72;;
62977;SDS011;49073;42.352;23.808;2022-08-21T03:05:06;6.10;;;2.70;;
62977;SDS011;49073;42.352;23.808;2022-08-21T03:08:10;5.85;;;2.50;;
62977;SDS011;49073;42.352;23.808;2022-08-21T03:11:13;12.27;;;3.08;;
62977;SDS011;49073;42.352;23.808;2022-08-21T03:14:14;12.05;;;3.22;;
62977;SDS011;49073;42.352;23.808;2022-08-21T03:17:15;6.80;;;2.90;;
62977;SDS011;49073;42.352;23.808;2022-08-21T03:20:17;6.28;;;2.90;;
62977;SDS011;49073;42.352;23.808;2022-08-21T03:23:19;9.10;;;2.88;;
62977;SDS011;49073;42.352;23.808;2022-08-21T03:26:20;5.35;;;2.72;;
62977;SDS011;49073;42.352;23.808;2022-08-21T03:29:21;3.53;;;2.42;;
62977;SDS011;49073;42.352;23.808;2022-08-21T03:32:21;5.70;;;2.80;;
62977;SDS011;49073;42.352;23.808;2022-08-21T03:35:23;5.90;;;2.78;;
62977;SDS011;49073;42.352;23.808;2022-08-21T03:38:23;6.60;;;3.50;;
62977;SDS011;49073;42.352;23.808;2022-08-21T03:41:24;4.75;;;3.15;;
62977;SDS011;49073;42.352;23.808;2022-08-21T03:44:25;7.25;;;3.00;;
62977;SDS011;49073;42.352;23.808;2022-08-21T03:47:28;7.28;;;2.92;;
62977;SDS011;49073;42.352;23.808;2022-08-21T03:50:30;7.93;;;3.70;;
62977;SDS011;49073;42.352;23.808;2022-08-21T03:53:32;4.50;;;3.10;;
62977;SDS011;49073;42.352;23.808;2022-08-21T03:56:34;7.60;;;2.92;;
62977;SDS011;49073;42.352;23.808;2022-08-21T03:59:35;7.40;;;2.92;;
62977;SDS011;49073;42.352;23.808;2022-08-21T04:02:36;4.85;;;3.05;;
62977;SDS011;49073;42.352;23.808;2022-08-21T04:05:36;9.95;;;3.00;;
62977;SDS011;49073;42.352;23.808;2022-08-21T04:08:37;6.20;;;3.25;;
62977;SDS011;49073;42.352;23.808;2022-08-21T04:11:38;6.45;;;3.35;;
62977;SDS011;49073;42.352;23.808;2022-08-21T04:14:38;8.77;;;3.10;;
62977;SDS011;49073;42.352;23.808;2022-08-21T04:17:39;9.48;;;3.28;;
62977;SDS011;49073;42.352;23.808;2022-08-21T04:20:40;5.65;;;3.17;;
62977;SDS011;49073;42.352;23.808;2022-08-21T04:23:42;9.48;;;3.17;;
62977;SDS011;49073;42.352;23.808;2022-08-21T04:26:43;13.32;;;3.10;;
62977;SDS011;49073;42.352;23.808;2022-08-21T04:29:43;6.43;;;3.30;;
62977;SDS011;49073;42.352;23.808;2022-08-21T04:32:45;7.32;;;3.65;;
62977;SDS011;49073;42.352;23.808;2022-08-21T04:35:47;7.43;;;3.08;;
62977;SDS011;49073;42.352;23.808;2022-08-21T04:38:49;4.68;;;3.15;;
62977;SDS011;49073;42.352;23.808;2022-08-21T04:41:49;8.75;;;3.13;;
62977;SDS011;49073;42.352;23.808;2022-08-21T04:44:50;3.33;;;2.35;;
62977;SDS011;49073;42.352;23.808;2022-08-21T04:47:51;14.02;;;3.40;;
62977;SDS011;49073;42.352;23.808;2022-08-21T04:54:10;7.07;;;3.42;;
62977;SDS011;49073;42.352;23.808;2022-08-21T04:57:14;6.03;;;3.22;;
62977;SDS011;49073;42.352;23.808;2022-08-21T05:00:16;7.68;;;3.85;;
62977;SDS011;49073;42.352;23.808;2022-08-21T05:03:18;10.38;;;3.65;;
62977;SDS011;49073;42.352;23.808;2022-08-21T05:06:19;5.57;;;2.67;;
62977;SDS011;49073;42.352;23.808;2022-08-21T05:09:21;5.63;;;3.40;;
62977;SDS011;49073;42.352;23.808;2022-08-21T05:12:22;10.73;;;3.72;;
62977;SDS011;49073;42.352;23.808;2022-08-21T05:15:22;8.73;;;3.40;;
62977;SDS011;49073;42.352;23.808;2022-08-21T05:18:23;6.68;;;3.35;;
62977;SDS011;49073;42.352;23.808;2022-08-21T05:21:24;7.07;;;3.78;;
62977;SDS011;49073;42.352;23.808;2022-08-21T05:24:24;9.65;;;3.00;;
62977;SDS011;49073;42.352;23.808;2022-08-21T05:27:25;6.93;;;3.30;;
62977;SDS011;49073;42.352;23.808;2022-08-21T05:30:29;6.53;;;3.50;;
62977;SDS011;49073;42.352;23.808;2022-08-21T05:33:30;7.97;;;3.50;;
62977;SDS011;49073;42.352;23.808;2022-08-21T05:36:32;5.28;;;3.40;;
62977;SDS011;49073;42.352;23.808;2022-08-21T05:39:32;4.75;;;3.22;;
62977;SDS011;49073;42.352;23.808;2022-08-21T05:42:33;6.32;;;3.45;;
62977;SDS011;49073;42.352;23.808;2022-08-21T05:45:33;15.15;;;4.05;;
62977;SDS011;49073;42.352;23.808;2022-08-21T05:48:35;7.90;;;3.65;;
62977;SDS011;49073;42.352;23.808;2022-08-21T05:51:36;6.75;;;3.33;;
62977;SDS011;49073;42.352;23.808;2022-08-21T05:54:39;6.50;;;3.83;;
62977;SDS011;49073;42.352;23.808;2022-08-21T05:57:39;7.63;;;3.83;;
62977;SDS011;49073;42.352;23.808;2022-08-21T06:00:41;6.93;;;4.13;;
62977;SDS011;49073;42.352;23.808;2022-08-21T06:03:42;5.53;;;3.53;;
62977;SDS011;49073;42.352;23.808;2022-08-21T06:06:43;5.22;;;3.55;;
62977;SDS011;49073;42.352;23.808;2022-08-21T06:09:43;8.13;;;4.07;;
62977;SDS011;49073;42.352;23.808;2022-08-21T06:12:44;7.20;;;4.60;;
62977;SDS011;49073;42.352;23.808;2022-08-21T06:15:44;5.18;;;3.40;;
62977;SDS011;49073;42.352;23.808;2022-08-21T06:18:45;9.95;;;4.47;;
62977;SDS011;49073;42.352;23.808;2022-08-21T06:21:46;8.48;;;3.75;;
62977;SDS011;49073;42.352;23.808;2022-08-21T06:24:46;8.82;;;3.50;;
62977;SDS011;49073;42.352;23.808;2022-08-21T06:27:47;11.18;;;3.90;;
62977;SDS011;49073;42.352;23.808;2022-08-21T06:30:48;10.20;;;3.75;;
62977;SDS011;49073;42.352;23.808;2022-08-21T06:33:48;11.15;;;3.40;;
62977;SDS011;49073;42.352;23.808;2022-08-21T06:36:49;16.20;;;4.10;;
62977;SDS011;49073;42.352;23.808;2022-08-21T06:39:49;7.30;;;3.22;;
62977;SDS011;49073;42.352;23.808;2022-08-21T06:42:50;8.30;;;4.45;;
62977;SDS011;49073;42.352;23.808;2022-08-21T06:45:50;7.32;;;5.35;;
62977;SDS011;49073;42.352;23.808;2022-08-21T06:48:51;11.48;;;4.45;;
62977;SDS011;49073;42.352;23.808;2022-08-21T06:51:51;10.30;;;3.95;;
62977;SDS011;49073;42.352;23.808;2022-08-21T06:54:52;8.38;;;4.10;;
62977;SDS011;49073;42.352;23.808;2022-08-21T06:57:52;6.25;;;4.00;;
62977;SDS011;49073;42.352;23.808;2022-08-21T07:00:53;5.97;;;3.88;;
62977;SDS011;49073;42.352;23.808;2022-08-21T07:03:54;5.97;;;3.55;;
62977;SDS011;49073;42.352;23.808;2022-08-21T07:06:54;6.22;;;4.30;;
62977;SDS011;49073;42.352;23.808;2022-08-21T07:09:55;7.03;;;3.80;;
62977;SDS011;49073;42.352;23.808;2022-08-21T07:12:55;6.90;;;4.28;;
62977;SDS011;49073;42.352;23.808;2022-08-21T07:15:56;12.60;;;4.15;;
62977;SDS011;49073;42.352;23.808;2022-08-21T07:18:56;10.88;;;4.70;;
62977;SDS011;49073;42.352;23.808;2022-08-21T07:21:58;9.32;;;4.60;;
62977;SDS011;49073;42.352;23.808;2022-08-21T07:25:01;6.85;;;4.88;;
62977;SDS011;49073;42.352;23.808;2022-08-21T07:28:03;9.18;;;5.00;;
62977;SDS011;49073;42.352;23.808;2022-08-21T07:31:04;9.40;;;4.63;;
62977;SDS011;49073;42.352;23.808;2022-08-21T07:34:05;9.15;;;5.22;;
62977;SDS011;49073;42.352;23.808;2022-08-21T07:37:05;9.27;;;4.38;;
62977;SDS011;49073;42.352;23.808;2022-08-21T07:40:06;8.10;;;4.38;;
62977;SDS011;49073;42.352;23.808;2022-08-21T07:43:07;9.63;;;5.00;;
62977;SDS011;49073;42.352;23.808;2022-08-21T07:46:08;11.38;;;6.68;;
62977;SDS011;49073;42.352;23.808;2022-08-21T07:49:08;11.88;;;7.10;;
62977;SDS011;49073;42.352;23.808;2022-08-21T07:52:09;9.00;;;6.07;;
62977;SDS011;49073;42.352;23.808;2022-08-21T07:55:12;12.18;;;7.78;;
62977;SDS011;49073;42.352;23.808;2022-08-21T07:58:14;8.02;;;4.95;;
62977;SDS011;49073;42.352;23.808;2022-08-21T08:01:14;9.10;;;4.93;;
62977;SDS011;49073;42.352;23.808;2022-08-21T08:04:15;11.40;;;5.45;;
62977;SDS011;49073;42.352;23.808;2022-08-21T08:07:16;9.32;;;5.32;;
62977;SDS011;49073;42.352;23.808;2022-08-21T08:10:17;8.90;;;4.88;;
62977;SDS011;49073;42.352;23.808;2022-08-21T08:13:18;12.57;;;6.07;;
62977;SDS011;49073;42.352;23.808;2022-08-21T08:16:19;9.25;;;5.43;;
62977;SDS011;49073;42.352;23.808;2022-08-21T08:19:20;10.95;;;4.55;;
62977;SDS011;49073;42.352;23.808;2022-08-21T08:22:21;12.00;;;5.10;;
62977;SDS011;49073;42.352;23.808;2022-08-21T08:25:26;9.23;;;5.22;;
62977;SDS011;49073;42.352;23.808;2022-08-21T08:28:27;9.90;;;4.22;;
62977;SDS011;49073;42.352;23.808;2022-08-21T08:31:28;9.93;;;4.40;;
62977;SDS011;49073;42.352;23.808;2022-08-21T08:34:28;8.77;;;5.18;;
62977;SDS011;49073;42.352;23.808;2022-08-21T08:37:30;8.70;;;5.40;;
62977;SDS011;49073;42.352;23.808;2022-08-21T08:40:47;14.38;;;6.65;;
62977;SDS011;49073;42.352;23.808;2022-08-21T08:43:54;13.50;;;6.72;;
62977;SDS011;49073;42.352;23.808;2022-08-21T08:46:58;11.07;;;4.80;;
62977;SDS011;49073;42.352;23.808;2022-08-21T08:50:12;9.23;;;5.30;;
62977;SDS011;49073;42.352;23.808;2022-08-21T08:53:22;8.15;;;4.57;;
62977;SDS011;49073;42.352;23.808;2022-08-21T08:56:30;8.52;;;4.68;;
62977;SDS011;49073;42.352;23.808;2022-08-21T08:59:35;7.85;;;5.07;;
62977;SDS011;49073;42.352;23.808;2022-08-21T09:02:41;15.98;;;4.93;;
62977;SDS011;49073;42.352;23.808;2022-08-21T09:05:44;8.82;;;4.47;;
62977;SDS011;49073;42.352;23.808;2022-08-21T09:08:58;7.55;;;5.07;;
62977;SDS011;49073;42.352;23.808;2022-08-21T09:16:12;10.70;;;5.05;;
62977;SDS011;49073;42.352;23.808;2022-08-21T09:25:55;8.25;;;4.15;;
62977;SDS011;49073;42.352;23.808;2022-08-21T09:29:07;8.10;;;4.80;;
62977;SDS011;49073;42.352;23.808;2022-08-21T09:32:15;10.65;;;5.25;;
62977;SDS011;49073;42.352;23.808;2022-08-21T09:35:22;10.23;;;5.00;;
62977;SDS011;49073;42.352;23.808;2022-08-21T09:38:31;7.82;;;5.03;;
62977;SDS011;49073;42.352;23.808;2022-08-21T09:41:37;6.80;;;4.40;;
62977;SDS011;49073;42.352;23.808;2022-08-21T09:44:40;9.32;;;4.43;;
62977;SDS011;49073;42.352;23.808;2022-08-21T09:47:43;7.05;;;4.55;;
62977;SDS011;49073;42.352;23.808;2022-08-21T09:50:46;7.13;;;4.55;;
62977;SDS011;49073;42.352;23.808;2022-08-21T09:53:49;6.03;;;4.13;;
62977;SDS011;49073;42.352;23.808;2022-08-21T09:56:57;8.05;;;4.53;;
62977;SDS011;49073;42.352;23.808;2022-08-21T10:00:39;9.30;;;4.32;;
62977;SDS011;49073;42.352;23.808;2022-08-21T10:03:39;8.18;;;4.65;;
62977;SDS011;49073;42.352;23.808;2022-08-21T10:06:40;6.03;;;3.97;;
62977;SDS011;49073;42.352;23.808;2022-08-21T10:09:41;7.95;;;3.67;;
62977;SDS011;49073;42.352;23.808;2022-08-21T10:19:26;7.35;;;4.30;;
62977;SDS011;49073;42.352;23.808;2022-08-21T10:25:31;6.07;;;3.60;;
62977;SDS011;49073;42.352;23.808;2022-08-21T10:28:53;7.32;;;3.60;;
62977;SDS011;49073;42.352;23.808;2022-08-21T10:35:28;10.10;;;4.10;;
62977;SDS011;49073;42.352;23.808;2022-08-21T10:38:55;5.80;;;4.10;;
62977;SDS011;49073;42.352;23.808;2022-08-21T10:52:05;8.10;;;4.80;;
62977;SDS011;49073;42.352;23.808;2022-08-21T10:58:44;10.95;;;4.80;;
62977;SDS011;49073;42.352;23.808;2022-08-21T11:05:33;8.38;;;4.18;;
62977;SDS011;49073;42.352;23.808;2022-08-21T11:08:39;6.55;;;4.15;;
62977;SDS011;49073;42.352;23.808;2022-08-21T11:11:50;5.88;;;4.35;;
62977;SDS011;49073;42.352;23.808;2022-08-21T11:14:57;9.80;;;4.70;;
62977;SDS011;49073;42.352;23.808;2022-08-21T11:21:46;8.93;;;4.70;;
62977;SDS011;49073;42.352;23.808;2022-08-21T11:24:59;9.70;;;4.47;;
62977;SDS011;49073;42.352;23.808;2022-08-21T11:28:13;9.10;;;5.30;;
62977;SDS011;49073;42.352;23.808;2022-08-21T11:31:41;9.57;;;5.18;;
62977;SDS011;49073;42.352;23.808;2022-08-21T11:41:28;11.68;;;5.35;;
62977;SDS011;49073;42.352;23.808;2022-08-21T11:51:22;11.43;;;5.53;;
62977;SDS011;49073;42.352;23.808;2022-08-21T12:01:33;7.32;;;5.22;;
62977;SDS011;49073;42.352;23.808;2022-08-21T12:04:42;10.15;;;5.75;;
62977;SDS011;49073;42.352;23.808;2022-08-21T12:11:27;8.20;;;5.63;;
62977;SDS011;49073;42.352;23.808;2022-08-21T12:14:44;8.05;;;5.68;;
62977;SDS011;49073;42.352;23.808;2022-08-21T12:18:02;9.75;;;5.25;;
62977;SDS011;49073;42.352;23.808;2022-08-21T12:21:23;9.68;;;5.70;;
62977;SDS011;49073;42.352;23.808;2022-08-21T12:27:27;8.93;;;5.30;;
62977;SDS011;49073;42.352;23.808;2022-08-21T12:33:49;9.10;;;5.82;;
62977;SDS011;49073;42.352;23.808;2022-08-21T12:36:56;13.52;;;6.32;;
62977;SDS011;49073;42.352;23.808;2022-08-21T12:40:00;9.57;;;5.88;;
62977;SDS011;49073;42.352;23.808;2022-08-21T12:43:03;9.20;;;5.82;;
62977;SDS011;49073;42.352;23.808;2022-08-21T12:46:05;9.48;;;5.80;;
62977;SDS011;49073;42.352;23.808;2022-08-21T12:49:12;11.77;;;6.60;;
62977;SDS011;49073;42.352;23.808;2022-08-21T12:55:31;8.88;;;5.28;;
62977;SDS011;49073;42.352;23.808;2022-08-21T12:58:33;8.40;;;4.97;;
62977;SDS011;49073;42.352;23.808;2022-08-21T13:04:36;10.35;;;6.05;;
62977;SDS011;49073;42.352;23.808;2022-08-21T13:07:43;13.32;;;6.60;;
62977;SDS011;49073;42.352;23.808;2022-08-21T13:10:45;9.40;;;6.28;;
62977;SDS011;49073;42.352;23.808;2022-08-21T13:13:49;12.38;;;6.25;;
62977;SDS011;49073;42.352;23.808;2022-08-21T13:16:54;12.02;;;6.30;;
62977;SDS011;49073;42.352;23.808;2022-08-21T13:20:00;12.85;;;5.95;;
62977;SDS011;49073;42.352;23.808;2022-08-21T13:23:18;15.02;;;6.70;;
62977;SDS011;49073;42.352;23.808;2022-08-21T13:26:24;10.02;;;5.60;;
62977;SDS011;49073;42.352;23.808;2022-08-21T13:29:29;8.00;;;5.80;;
62977;SDS011;49073;42.352;23.808;2022-08-21T13:32:33;13.07;;;6.40;;
62977;SDS011;49073;42.352;23.808;2022-08-21T13:35:52;9.75;;;5.80;;
62977;SDS011;49073;42.352;23.808;2022-08-21T13:38:57;10.27;;;5.70;;
62977;SDS011;49073;42.352;23.808;2022-08-21T13:41:58;11.18;;;5.65;;
62977;SDS011;49073;42.352;23.808;2022-08-21T13:45:01;11.85;;;5.93;;
62977;SDS011;49073;42.352;23.808;2022-08-21T13:48:02;10.77;;;6.10;;
62977;SDS011;49073;42.352;23.808;2022-08-21T13:51:04;8.52;;;5.88;;
62977;SDS011;49073;42.352;23.808;2022-08-21T13:54:15;11.40;;;6.95;;
62977;SDS011;49073;42.352;23.808;2022-08-21T13:57:28;12.13;;;6.43;;
62977;SDS011;49073;42.352;23.808;2022-08-21T14:00:35;10.60;;;6.80;;
62977;SDS011;49073;42.352;23.808;2022-08-21T14:03:45;13.25;;;7.60;;
62977;SDS011;49073;42.352;23.808;2022-08-21T14:06:49;11.00;;;7.10;;
62977;SDS011;49073;42.352;23.808;2022-08-21T14:09:50;9.57;;;7.68;;
62977;SDS011;49073;42.352;23.808;2022-08-21T14:15:59;15.68;;;8.10;;
62977;SDS011;49073;42.352;23.808;2022-08-21T14:22:12;10.15;;;7.22;;
62977;SDS011;49073;42.352;23.808;2022-08-21T14:28:30;12.82;;;7.07;;
62977;SDS011;49073;42.352;23.808;2022-08-21T14:31:33;11.93;;;7.27;;
62977;SDS011;49073;42.352;23.808;2022-08-21T14:34:34;13.30;;;6.80;;
62977;SDS011;49073;42.352;23.808;2022-08-21T14:37:35;8.68;;;6.25;;
62977;SDS011;49073;42.352;23.808;2022-08-21T14:40:36;14.43;;;7.25;;
62977;SDS011;49073;42.352;23.808;2022-08-21T14:43:36;8.90;;;6.72;;
62977;SDS011;49073;42.352;23.808;2022-08-21T14:46:37;14.20;;;6.72;;
62977;SDS011;49073;42.352;23.808;2022-08-21T14:49:37;10.85;;;6.43;;
62977;SDS011;49073;42.352;23.808;2022-08-21T14:52:39;10.45;;;6.90;;
62977;SDS011;49073;42.352;23.808;2022-08-21T14:55:40;12.85;;;6.78;;
62977;SDS011;49073;42.352;23.808;2022-08-21T14:59:07;11.82;;;8.25;;
62977;SDS011;49073;42.352;23.808;2022-08-21T15:02:10;9.93;;;6.93;;
62977;SDS011;49073;42.352;23.808;2022-08-21T15:05:11;10.63;;;6.13;;
62977;SDS011;49073;42.352;23.808;2022-08-21T15:08:12;9.38;;;6.88;;
62977;SDS011;49073;42.352;23.808;2022-08-21T15:11:16;10.60;;;7.13;;
62977;SDS011;49073;42.352;23.808;2022-08-21T15:14:19;11.52;;;6.90;;
62977;SDS011;49073;42.352;23.808;2022-08-21T15:17:24;11.15;;;6.60;;
62977;SDS011;49073;42.352;23.808;2022-08-21T15:20:25;13.82;;;6.88;;
62977;SDS011;49073;42.352;23.808;2022-08-21T15:23:25;13.20;;;7.30;;
62977;SDS011;49073;42.352;23.808;2022-08-21T15:26:26;12.32;;;7.80;;
62977;SDS011;49073;42.352;23.808;2022-08-21T15:29:30;10.55;;;7.07;;
62977;SDS011;49073;42.352;23.808;2022-08-21T15:32:31;12.48;;;7.47;;
62977;SDS011;49073;42.352;23.808;2022-08-21T15:35:32;8.82;;;7.30;;
62977;SDS011;49073;42.352;23.808;2022-08-21T15:38:34;15.75;;;6.90;;
62977;SDS011;49073;42.352;23.808;2022-08-21T15:41:34;10.70;;;6.05;;
62977;SDS011;49073;42.352;23.808;2022-08-21T15:44:35;9.00;;;5.53;;
62977;SDS011;49073;42.352;23.808;2022-08-21T15:47:36;11.80;;;5.68;;
62977;SDS011;49073;42.352;23.808;2022-08-21T15:50:38;9.38;;;5.45;;
62977;SDS011;49073;42.352;23.808;2022-08-21T15:53:39;12.85;;;5.72;;
62977;SDS011;49073;42.352;23.808;2022-08-21T15:56:40;9.52;;;6.07;;
62977;SDS011;49073;42.352;23.808;2022-08-21T15:59:48;9.38;;;6.13;;
62977;SDS011;49073;42.352;23.808;2022-08-21T16:02:57;11.68;;;5.97;;
62977;SDS011;49073;42.352;23.808;2022-08-21T16:09:00;10.95;;;6.72;;
62977;SDS011;49073;42.352;23.808;2022-08-21T16:12:01;16.05;;;7.07;;
62977;SDS011;49073;42.352;23.808;2022-08-21T16:15:03;13.27;;;5.68;;
62977;SDS011;49073;42.352;23.808;2022-08-21T16:18:08;14.05;;;5.40;;
62977;SDS011;49073;42.352;23.808;2022-08-21T16:21:09;12.00;;;5.57;;
62977;SDS011;49073;42.352;23.808;2022-08-21T16:24:10;9.98;;;5.45;;
62977;SDS011;49073;42.352;23.808;2022-08-21T16:27:10;9.70;;;5.50;;
62977;SDS011;49073;42.352;23.808;2022-08-21T16:30:12;6.43;;;4.88;;
62977;SDS011;49073;42.352;23.808;2022-08-21T16:33:34;8.68;;;4.85;;
62977;SDS011;49073;42.352;23.808;2022-08-21T16:36:38;6.32;;;5.22;;
62977;SDS011;49073;42.352;23.808;2022-08-21T16:39:38;8.90;;;5.68;;
62977;SDS011;49073;42.352;23.808;2022-08-21T16:42:39;9.90;;;5.20;;
62977;SDS011;49073;42.352;23.808;2022-08-21T16:45:42;11.52;;;5.72;;
62977;SDS011;49073;42.352;23.808;2022-08-21T16:48:43;5.97;;;5.07;;
62977;SDS011;49073;42.352;23.808;2022-08-21T16:51:44;15.18;;;6.25;;
62977;SDS011;49073;42.352;23.808;2022-08-21T16:54:44;13.75;;;5.75;;
62977;SDS011;49073;42.352;23.808;2022-08-21T16:57:47;10.63;;;5.93;;
62977;SDS011;49073;42.352;23.808;2022-08-21T17:00:47;9.57;;;5.82;;
62977;SDS011;49073;42.352;23.808;2022-08-21T17:03:48;10.25;;;5.72;;
62977;SDS011;49073;42.352;23.808;2022-08-21T17:06:50;12.88;;;6.63;;
62977;SDS011;49073;42.352;23.808;2022-08-21T17:09:52;14.25;;;5.40;;
62977;SDS011;49073;42.352;23.808;2022-08-21T17:12:54;10.45;;;5.15;;
62977;SDS011;49073;42.352;23.808;2022-08-21T17:15:57;8.38;;;5.60;;
62977;SDS011;49073;42.352;23.808;2022-08-21T17:18:58;14.63;;;5.32;;
62977;SDS011;49073;42.352;23.808;2022-08-21T17:21:59;9.50;;;5.18;;
62977;SDS011;49073;42.352;23.808;2022-08-21T17:25:00;9.20;;;5.00;;
62977;SDS011;49073;42.352;23.808;2022-08-21T17:28:01;14.10;;;5.13;;
62977;SDS011;49073;42.352;23.808;2022-08-21T17:31:03;11.82;;;5.90;;
62977;SDS011;49073;42.352;23.808;2022-08-21T17:34:07;9.85;;;6.18;;
62977;SDS011;49073;42.352;23.808;2022-08-21T17:37:10;8.30;;;4.75;;
62977;SDS011;49073;42.352;23.808;2022-08-21T17:40:11;9.93;;;5.00;;
62977;SDS011;49073;42.352;23.808;2022-08-21T17:43:14;13.43;;;5.15;;
62977;SDS011;49073;42.352;23.808;2022-08-21T17:46:19;11.65;;;5.40;;
62977;SDS011;49073;42.352;23.808;2022-08-21T17:49:25;12.98;;;5.75;;
62977;SDS011;49073;42.352;23.808;2022-08-21T17:52:26;12.52;;;5.35;;
62977;SDS011;49073;42.352;23.808;2022-08-21T17:55:27;8.85;;;5.90;;
62977;SDS011;49073;42.352;23.808;2022-08-21T17:58:28;11.10;;;5.55;;
62977;SDS011;49073;42.352;23.808;2022-08-21T18:01:30;7.95;;;5.13;;
62977;SDS011;49073;42.352;23.808;2022-08-21T18:04:33;11.85;;;4.95;;
62977;SDS011;49073;42.352;23.808;2022-08-21T18:07:35;8.38;;;5.20;;
62977;SDS011;49073;42.352;23.808;2022-08-21T18:10:37;11.40;;;5.40;;
62977;SDS011;49073;42.352;23.808;2022-08-21T18:13:38;9.32;;;5.65;;
62977;SDS011;49073;42.352;23.808;2022-08-21T18:16:39;9.77;;;5.13;;
62977;SDS011;49073;42.352;23.808;2022-08-21T18:19:40;14.52;;;5.03;;
62977;SDS011;49073;42.352;23.808;2022-08-21T18:22:41;7.93;;;4.88;;
62977;SDS011;49073;42.352;23.808;2022-08-21T18:25:43;9.45;;;4.80;;
62977;SDS011;49073;42.352;23.808;2022-08-21T18:28:47;12.27;;;5.35;;
62977;SDS011;49073;42.352;23.808;2022-08-21T18:31:48;7.15;;;5.00;;
62977;SDS011;49073;42.352;23.808;2022-08-21T18:34:49;7.80;;;4.90;;
62977;SDS011;49073;42.352;23.808;2022-08-21T18:37:51;10.75;;;5.28;;
62977;SDS011;49073;42.352;23.808;2022-08-21T18:40:51;10.07;;;5.78;;
62977;SDS011;49073;42.352;23.808;2022-08-21T18:43:53;9.23;;;5.22;;
62977;SDS011;49073;42.352;23.808;2022-08-21T18:46:58;15.13;;;5.55;;
62977;SDS011;49073;42.352;23.808;2022-08-21T18:50:05;8.57;;;5.00;;
62977;SDS011;49073;42.352;23.808;2022-08-21T18:53:06;12.35;;;5.70;;
62977;SDS011;49073;42.352;23.808;2022-08-21T18:56:07;9.40;;;5.28;;
62977;SDS011;49073;42.352;23.808;2022-08-21T18:59:08;7.95;;;5.13;;
62977;SDS011;49073;42.352;23.808;2022-08-21T19:02:11;11.25;;;5.78;;
62977;SDS011;49073;42.352;23.808;2022-08-21T19:05:12;10.98;;;5.50;;
62977;SDS011;49073;42.352;23.808;2022-08-21T19:08:17;10.27;;;5.20;;
62977;SDS011;49073;42.352;23.808;2022-08-21T19:11:19;9.43;;;5.00;;
62977;SDS011;49073;42.352;23.808;2022-08-21T19:14:21;9.00;;;5.13;;
62977;SDS011;49073;42.352;23.808;2022-08-21T19:17:21;8.02;;;5.85;;
62977;SDS011;49073;42.352;23.808;2022-08-21T19:20:24;10.50;;;6.00;;
62977;SDS011;49073;42.352;23.808;2022-08-21T19:23:30;11.43;;;5.40;;
62977;SDS011;49073;42.352;23.808;2022-08-21T19:26:31;11.55;;;5.97;;
62977;SDS011;49073;42.352;23.808;2022-08-21T19:29:33;7.03;;;5.65;;
62977;SDS011;49073;42.352;23.808;2022-08-21T19:32:35;8.15;;;5.22;;
62977;SDS011;49073;42.352;23.808;2022-08-21T19:35:38;9.90;;;5.57;;
62977;SDS011;49073;42.352;23.808;2022-08-21T19:38:39;9.15;;;5.63;;